createdAt,value
2022-08-14T00:01:12.332Z,9.60
2022-08-14T00:03:41.447Z,9.67
2022-08-14T00:06:14.006Z,9.43
2022-08-14T00:08:59.597Z,10.00
2022-08-14T00:11:32.009Z,9.50
2022-08-14T00:14:02.210Z,10.07
2022-08-14T00:16:41.291Z,9.00
2022-08-14T00:19:19.713Z,9.43
2022-08-14T00:21:51.047Z,8.87
2022-08-14T00:24:29.158Z,9.10
2022-08-14T00:27:02.437Z,11.00
2022-08-14T00:29:33.225Z,9.87
2022-08-14T00:32:52.149Z,10.00
2022-08-14T00:35:01.512Z,10.87
2022-08-14T00:37:32.022Z,10.23
2022-08-14T00:40:03.261Z,9.37
2022-08-14T00:42:54.871Z,9.97
2022-08-14T00:45:30.529Z,9.90
2022-08-14T00:48:00.540Z,9.53
2022-08-14T00:50:31.310Z,9.60
2022-08-14T00:53:02.323Z,8.90
2022-08-14T00:55:35.929Z,9.30
2022-08-14T00:58:27.895Z,9.60
2022-08-14T01:01:05.487Z,9.90
2022-08-14T01:03:38.219Z,10.50
2022-08-14T01:06:09.714Z,10.43
2022-08-14T01:08:52.024Z,9.50
2022-08-14T01:11:35.408Z,10.13
2022-08-14T01:14:25.266Z,10.13
2022-08-14T01:16:55.620Z,11.27
2022-08-14T01:19:43.468Z,9.60
2022-08-14T01:22:18.612Z,10.23
2022-08-14T01:24:50.976Z,11.00
2022-08-14T01:27:24.066Z,10.47
2022-08-14T01:30:03.288Z,11.40
2022-08-14T01:32:37.490Z,9.53
2022-08-14T01:35:18.267Z,9.90
2022-08-14T01:38:02.521Z,10.33
2022-08-14T01:40:40.922Z,10.90
2022-08-14T01:43:18.931Z,10.60
2022-08-14T01:45:57.698Z,11.73
2022-08-14T01:48:37.380Z,11.00
2022-08-14T01:51:18.646Z,10.53
2022-08-14T01:53:55.456Z,10.67
2022-08-14T01:56:37.357Z,10.20
2022-08-14T01:59:10.188Z,10.93
2022-08-14T02:01:58.000Z,11.93
2022-08-14T02:04:54.858Z,10.13
2022-08-14T02:07:34.692Z,10.30
2022-08-14T02:10:13.275Z,10.70
2022-08-14T02:12:54.076Z,9.63
2022-08-14T02:15:27.205Z,10.13
2022-08-14T02:17:56.210Z,10.30
2022-08-14T02:20:25.500Z,9.90
2022-08-14T02:22:55.013Z,9.50
2022-08-14T02:25:30.936Z,9.83
2022-08-14T02:28:22.508Z,9.47
2022-08-14T02:30:52.551Z,9.87
2022-08-14T02:33:22.659Z,9.67
2022-08-14T02:36:01.539Z,9.77
2022-08-14T02:38:45.066Z,8.50
2022-08-14T02:41:15.463Z,8.80
2022-08-14T02:43:46.543Z,8.93
2022-08-14T02:46:20.776Z,9.20
2022-08-14T02:49:01.984Z,8.67
2022-08-14T02:51:34.522Z,8.60
2022-08-14T02:54:04.796Z,9.17
2022-08-14T02:57:15.274Z,9.00
2022-08-14T02:59:33.726Z,8.50
2022-08-14T03:02:04.490Z,7.80
2022-08-14T03:04:34.692Z,8.90
2022-08-14T03:07:07.297Z,8.30
2022-08-14T03:10:24.295Z,8.43
2022-08-14T03:12:32.873Z,8.43
2022-08-14T03:15:14.336Z,7.80
2022-08-14T03:17:57.789Z,7.33
2022-08-14T03:20:29.121Z,7.20
2022-08-14T03:23:03.307Z,7.60
2022-08-14T03:25:37.507Z,8.90
2022-08-14T03:28:14.591Z,9.40
2022-08-14T03:30:59.710Z,7.67
2022-08-14T03:33:38.042Z,8.67
2022-08-14T03:37:39.531Z,8.43
2022-08-14T03:39:15.482Z,9.10
2022-08-14T03:41:51.210Z,8.80
2022-08-14T03:45:27.035Z,8.60
2022-08-14T03:47:12.336Z,8.80
2022-08-14T03:49:53.759Z,8.20
2022-08-14T03:52:40.841Z,9.37
2022-08-14T03:55:12.602Z,8.63
2022-08-14T03:57:44.391Z,9.00
2022-08-14T04:00:40.316Z,8.33
2022-08-14T04:03:08.452Z,8.63
2022-08-14T04:05:43.353Z,8.70
2022-08-14T04:08:29.000Z,8.47
2022-08-14T04:11:01.563Z,8.50
2022-08-14T04:13:34.465Z,8.13
2022-08-14T04:16:06.978Z,9.10
2022-08-14T04:18:42.965Z,8.83
2022-08-14T04:21:13.389Z,8.60
2022-08-14T04:23:44.581Z,6.80
2022-08-14T04:26:27.376Z,6.50
2022-08-14T04:29:29.214Z,6.90
2022-08-14T04:33:10.489Z,5.50
2022-08-14T04:34:52.351Z,6.07
2022-08-14T04:37:41.244Z,5.03
2022-08-14T04:40:28.824Z,4.20
2022-08-14T04:43:17.313Z,3.60
2022-08-14T04:45:51.502Z,2.67
2022-08-14T04:48:39.999Z,2.90
2022-08-14T04:51:13.836Z,3.40
2022-08-14T04:53:44.908Z,3.40
2022-08-14T04:56:31.428Z,3.97
2022-08-14T04:59:10.439Z,3.87
2022-08-14T05:01:47.989Z,4.43
2022-08-14T05:04:22.858Z,4.97
2022-08-14T05:06:54.293Z,5.30
2022-08-14T05:09:29.146Z,5.03
2022-08-14T05:12:58.497Z,4.97
2022-08-14T05:14:54.900Z,4.80
2022-08-14T05:17:31.831Z,5.03
2022-08-14T05:21:10.748Z,4.60
2022-08-14T05:23:03.754Z,4.40
2022-08-14T05:25:33.732Z,4.57
2022-08-14T05:28:18.950Z,3.87
2022-08-14T05:30:52.332Z,3.80
2022-08-14T05:33:22.559Z,4.27
2022-08-14T05:35:54.434Z,3.67
2022-08-14T05:38:31.302Z,3.27
2022-08-14T05:41:01.876Z,3.50
2022-08-14T05:43:41.535Z,3.80
2022-08-14T05:46:15.388Z,3.30
2022-08-14T05:48:45.344Z,2.70
2022-08-14T05:51:15.789Z,2.60
2022-08-14T05:53:56.947Z,7.20
2022-08-14T05:56:31.136Z,2.53
2022-08-14T05:59:01.456Z,3.17
2022-08-14T06:01:31.646Z,2.87
2022-08-14T06:04:05.103Z,3.37
2022-08-14T06:06:38.193Z,2.70
2022-08-14T06:09:09.887Z,3.23
2022-08-14T06:12:05.814Z,3.00
2022-08-14T06:14:36.112Z,3.33
2022-08-14T06:17:06.138Z,3.90
2022-08-14T06:19:35.043Z,3.23
2022-08-14T06:22:05.898Z,3.20
2022-08-14T06:24:37.977Z,4.33
2022-08-14T06:27:13.209Z,3.60
2022-08-14T06:29:45.173Z,3.43
2022-08-14T06:32:37.646Z,4.27
2022-08-14T06:35:12.632Z,3.60
2022-08-14T06:37:46.943Z,4.50
2022-08-14T06:40:28.029Z,4.67
2022-08-14T06:43:00.306Z,3.97
2022-08-14T06:45:32.621Z,4.00
2022-08-14T06:48:06.275Z,3.70
2022-08-14T06:50:42.145Z,4.47
2022-08-14T06:53:16.702Z,4.83
2022-08-14T06:55:57.867Z,4.23
2022-08-14T06:58:31.418Z,4.00
2022-08-14T07:01:24.878Z,3.80
2022-08-14T07:04:23.236Z,4.07
2022-08-14T07:06:54.832Z,3.77
2022-08-14T07:09:40.464Z,4.53
2022-08-14T07:12:54.793Z,4.17
2022-08-14T07:15:03.786Z,5.10
2022-08-14T07:17:36.256Z,5.57
2022-08-14T07:20:07.329Z,5.73
2022-08-14T07:22:56.370Z,6.00
2022-08-14T07:25:32.314Z,7.50
2022-08-14T07:28:02.118Z,7.20
2022-08-14T07:30:34.644Z,7.80
2022-08-14T07:33:04.798Z,8.33
2022-08-14T07:35:42.939Z,8.77
2022-08-14T07:38:24.945Z,9.63
2022-08-14T07:40:55.576Z,11.00
2022-08-14T07:43:24.860Z,9.73
2022-08-14T07:45:55.291Z,10.00
2022-08-14T07:48:25.258Z,9.00
2022-08-14T07:51:02.089Z,8.50
2022-08-14T07:53:36.696Z,9.80
2022-08-14T07:56:44.331Z,8.70
2022-08-14T07:59:00.995Z,8.60
2022-08-14T08:01:33.731Z,8.20
2022-08-14T08:04:16.673Z,8.77
2022-08-14T08:06:47.756Z,8.93
2022-08-14T08:09:24.028Z,8.77
2022-08-14T08:11:57.415Z,8.00
2022-08-14T08:14:28.490Z,8.80
2022-08-14T08:16:58.143Z,10.43
2022-08-14T08:19:27.510Z,9.00
2022-08-14T08:22:06.137Z,9.97
2022-08-14T08:24:35.922Z,9.90
2022-08-14T08:27:16.760Z,11.10
2022-08-14T08:29:50.771Z,11.43
2022-08-14T08:32:20.166Z,12.23
2022-08-14T08:34:49.762Z,12.07
2022-08-14T08:37:18.602Z,12.83
2022-08-14T08:40:02.614Z,12.07
2022-08-14T08:42:38.753Z,11.77
2022-08-14T08:45:12.191Z,12.40
2022-08-14T08:47:42.123Z,13.40
2022-08-14T08:50:31.092Z,12.67
2022-08-14T08:53:02.401Z,12.40
2022-08-14T08:55:36.839Z,13.27
2022-08-14T08:58:16.650Z,13.03
2022-08-14T09:01:31.045Z,18.00
2022-08-14T09:04:04.241Z,17.03
2022-08-14T09:07:10.012Z,15.33
2022-08-14T09:09:54.490Z,20.30
2022-08-14T09:12:32.264Z,19.23
2022-08-14T09:15:11.647Z,18.45
2022-08-14T09:17:42.315Z,16.37
2022-08-14T09:20:13.065Z,16.30
2022-08-14T09:22:48.385Z,14.70
2022-08-14T09:25:19.731Z,14.27
2022-08-14T09:27:49.160Z,14.57
2022-08-14T09:30:32.269Z,11.83
2022-08-14T09:33:31.598Z,11.60
2022-08-14T09:36:15.814Z,12.40
2022-08-14T09:38:53.907Z,11.63
2022-08-14T09:42:21.620Z,13.30
2022-08-14T09:44:45.894Z,11.97
2022-08-14T09:47:21.400Z,12.80
2022-08-14T09:49:53.332Z,11.20
2022-08-14T09:52:33.973Z,11.63
2022-08-14T09:55:04.912Z,11.37
2022-08-14T09:57:33.812Z,10.60
2022-08-14T10:00:28.707Z,9.23
2022-08-14T10:03:05.382Z,10.20
2022-08-14T10:05:39.204Z,10.20
2022-08-14T10:08:25.579Z,9.83
2022-08-14T10:11:02.379Z,8.90
2022-08-14T10:13:42.988Z,8.20
2022-08-14T10:16:27.336Z,9.27
2022-08-14T10:19:12.312Z,8.60
2022-08-14T10:21:58.450Z,8.23
2022-08-14T10:24:36.705Z,7.90
2022-08-14T10:27:17.262Z,7.73
2022-08-14T10:29:50.548Z,7.77
2022-08-14T10:32:28.530Z,7.57
2022-08-14T10:35:14.788Z,7.37
2022-08-14T10:37:56.556Z,8.37
2022-08-14T10:40:43.405Z,8.17
2022-08-14T10:43:26.337Z,7.27
2022-08-14T10:46:21.862Z,7.93
2022-08-14T10:49:02.665Z,7.97
2022-08-14T10:51:36.323Z,7.60
2022-08-14T10:54:25.945Z,7.50
2022-08-14T10:57:11.714Z,8.37
2022-08-14T10:59:45.621Z,9.73
2022-08-14T11:02:35.880Z,10.33
2022-08-14T11:05:14.738Z,9.90
2022-08-14T11:07:59.717Z,11.20
2022-08-14T11:10:43.109Z,11.23
2022-08-14T11:13:17.244Z,10.33
2022-08-14T11:15:47.190Z,8.83
2022-08-14T11:18:20.486Z,9.30
2022-08-14T11:21:02.116Z,8.43
2022-08-14T11:23:38.691Z,8.37
2022-08-14T11:26:10.795Z,9.77
2022-08-14T11:28:46.257Z,9.90
2022-08-14T11:31:17.256Z,9.60
2022-08-14T11:33:51.366Z,9.97
2022-08-14T11:37:02.012Z,10.80
2022-08-14T11:39:33.578Z,10.10
2022-08-14T11:42:07.711Z,10.17
2022-08-14T11:45:00.278Z,9.03
2022-08-14T11:47:35.575Z,9.43
2022-08-14T11:50:25.198Z,9.93
2022-08-14T11:53:07.245Z,10.43
2022-08-14T11:55:40.183Z,9.00
2022-08-14T11:58:15.630Z,10.47
2022-08-14T12:00:58.774Z,10.63
2022-08-14T12:03:51.396Z,10.37
2022-08-14T12:06:29.577Z,11.20
2022-08-14T12:09:14.912Z,10.73
2022-08-14T12:11:47.519Z,10.73
2022-08-14T12:14:34.925Z,10.00
2022-08-14T12:17:12.221Z,10.10
2022-08-14T12:19:51.062Z,10.10
2022-08-14T12:22:30.242Z,9.97
2022-08-14T12:24:59.731Z,10.47
2022-08-14T12:27:52.029Z,10.00
2022-08-14T12:30:34.368Z,10.50
2022-08-14T12:33:23.999Z,9.90
2022-08-14T12:35:57.740Z,10.67
2022-08-14T12:38:36.004Z,9.70
2022-08-14T12:41:10.479Z,11.10
2022-08-14T12:43:51.874Z,11.40
2022-08-14T12:46:28.535Z,10.87
2022-08-14T12:49:02.507Z,10.60
2022-08-14T12:51:32.635Z,11.50
2022-08-14T12:54:19.353Z,12.00
2022-08-14T12:57:06.800Z,12.73
2022-08-14T12:59:42.817Z,12.47
2022-08-14T13:02:26.351Z,12.30
2022-08-14T13:04:58.239Z,10.90
2022-08-14T13:07:32.904Z,11.23
2022-08-14T13:10:45.873Z,9.63
2022-08-14T13:13:13.054Z,12.27
2022-08-14T13:15:47.888Z,11.30
2022-08-14T13:18:18.163Z,11.23
2022-08-14T13:20:48.155Z,10.83
2022-08-14T13:23:30.493Z,11.80
2022-08-14T13:26:02.856Z,11.73
2022-08-14T13:28:34.065Z,10.93
2022-08-14T13:31:11.772Z,11.30
2022-08-14T13:33:42.001Z,11.00
2022-08-14T13:36:24.245Z,10.27
2022-08-14T13:39:02.003Z,12.03
2022-08-14T13:41:36.416Z,11.47
2022-08-14T13:44:07.974Z,11.70
2022-08-14T13:46:45.926Z,9.80
2022-08-14T13:49:18.273Z,9.83
2022-08-14T13:51:50.782Z,9.57
2022-08-14T13:54:24.499Z,9.23
2022-08-14T13:57:01.406Z,11.50
2022-08-14T13:59:38.182Z,10.27
2022-08-14T14:02:10.540Z,8.80
2022-08-14T14:04:43.031Z,9.80
2022-08-14T14:07:18.270Z,8.70
2022-08-14T14:09:52.791Z,8.70
2022-08-14T14:12:38.064Z,8.60
2022-08-14T14:15:13.611Z,7.20
2022-08-14T14:17:47.796Z,7.53
2022-08-14T14:20:35.435Z,7.70
2022-08-14T14:23:09.626Z,6.83
2022-08-14T14:25:48.139Z,6.17
2022-08-14T14:28:33.616Z,8.23
2022-08-14T14:31:06.138Z,6.20
2022-08-14T14:34:12.533Z,6.70
2022-08-14T14:36:55.686Z,5.70
2022-08-14T14:39:27.568Z,6.93
2022-08-14T14:42:04.108Z,5.82
2022-08-14T14:44:40.586Z,6.60
2022-08-14T14:47:11.223Z,6.40
2022-08-14T14:49:55.173Z,6.10
2022-08-14T14:52:27.810Z,6.70
2022-08-14T14:54:59.066Z,7.23
2022-08-14T14:57:35.895Z,7.63
2022-08-14T15:00:12.812Z,7.30
2022-08-14T15:02:44.427Z,9.10
2022-08-14T15:05:16.586Z,10.33
2022-08-14T15:07:51.311Z,8.07
2022-08-14T15:10:28.055Z,8.07
2022-08-14T15:13:04.348Z,8.67
2022-08-14T15:15:36.943Z,8.20
2022-08-14T15:18:35.771Z,8.77
2022-08-14T15:21:01.337Z,8.37
2022-08-14T15:23:43.862Z,8.60
2022-08-14T15:26:24.021Z,8.80
2022-08-14T15:29:05.632Z,9.43
2022-08-14T15:31:37.094Z,9.10
2022-08-14T15:34:44.468Z,9.33
2022-08-14T15:37:05.039Z,10.10
2022-08-14T15:39:35.685Z,9.00
2022-08-14T15:42:14.822Z,9.33
2022-08-14T15:44:57.936Z,8.23
2022-08-14T15:47:32.155Z,9.93
2022-08-14T15:50:03.110Z,9.70
2022-08-14T15:52:37.234Z,9.50
2022-08-14T15:55:09.029Z,9.80
2022-08-14T15:57:38.581Z,9.90
2022-08-14T16:00:40.268Z,9.47
2022-08-14T16:03:16.514Z,9.90
2022-08-14T16:05:46.464Z,10.17
2022-08-14T16:08:26.989Z,9.40
2022-08-14T16:11:00.892Z,9.30
2022-08-14T16:13:40.497Z,9.70
2022-08-14T16:16:34.434Z,10.50
2022-08-14T16:19:10.898Z,9.40
2022-08-14T16:22:01.710Z,8.90
2022-08-14T16:25:00.120Z,9.50
2022-08-14T16:27:33.582Z,9.60
2022-08-14T16:30:25.261Z,8.90
2022-08-14T16:33:01.008Z,8.67
2022-08-14T16:35:42.403Z,8.93
2022-08-14T16:38:45.425Z,8.50
2022-08-14T16:41:23.301Z,8.67
2022-08-14T16:43:59.402Z,8.20
2022-08-14T16:46:32.831Z,8.13
2022-08-14T16:49:02.536Z,9.13
2022-08-14T16:51:36.441Z,8.80
2022-08-14T16:54:20.703Z,8.37
2022-08-14T16:57:17.441Z,8.40
2022-08-14T16:59:52.454Z,8.80
2022-08-14T17:02:45.058Z,8.07
2022-08-14T17:05:19.562Z,7.43
2022-08-14T17:08:41.532Z,7.70
2022-08-14T17:11:10.547Z,7.53
2022-08-14T17:13:59.775Z,7.57
2022-08-14T17:16:35.954Z,7.13
2022-08-14T17:19:14.476Z,6.90
2022-08-14T17:21:47.778Z,7.77
2022-08-14T17:24:55.817Z,7.67
2022-08-14T17:27:10.371Z,6.00
2022-08-14T17:29:44.753Z,8.00
2022-08-14T17:32:56.228Z,8.23
2022-08-14T17:35:57.366Z,9.60
2022-08-14T17:38:39.631Z,5.60
2022-08-14T17:41:33.045Z,6.63
2022-08-14T17:44:20.173Z,6.37
2022-08-14T17:46:58.578Z,6.90
2022-08-14T17:49:32.855Z,6.60
2022-08-14T17:52:07.569Z,6.57
2022-08-14T17:54:52.697Z,5.73
2022-08-14T17:57:28.602Z,5.80
2022-08-14T17:59:59.128Z,6.70
2022-08-14T18:02:31.814Z,6.73
2022-08-14T18:05:03.001Z,6.30
2022-08-14T18:08:31.576Z,6.17
2022-08-14T18:10:53.206Z,5.77
2022-08-14T18:13:13.332Z,5.90
2022-08-14T18:15:44.589Z,5.80
2022-08-14T18:18:22.861Z,6.33
2022-08-14T18:21:42.271Z,6.90
2022-08-14T18:23:44.396Z,6.37
2022-08-14T18:26:37.479Z,7.17
2022-08-14T18:29:14.701Z,6.50
2022-08-14T18:31:45.397Z,5.97
2022-08-14T18:34:31.108Z,6.90
2022-08-14T18:37:16.549Z,5.97
2022-08-14T18:40:01.939Z,6.10
2022-08-14T18:42:45.355Z,7.70
2022-08-14T18:45:18.906Z,6.80
2022-08-14T18:48:33.178Z,7.70
2022-08-14T18:51:45.853Z,8.87
2022-08-14T18:54:33.170Z,8.30
2022-08-14T18:57:05.570Z,7.10
2022-08-14T18:59:40.250Z,5.97
2022-08-14T19:02:43.146Z,6.50
2022-08-14T19:05:14.289Z,6.57
2022-08-14T19:07:48.450Z,6.60
2022-08-14T19:10:37.247Z,7.60
2022-08-14T19:13:12.381Z,7.27
2022-08-14T19:15:44.504Z,6.83
2022-08-14T19:18:28.658Z,6.77
2022-08-14T19:20:59.799Z,6.87
2022-08-14T19:23:42.639Z,8.07
2022-08-14T19:26:36.932Z,8.50
2022-08-14T19:29:25.867Z,8.47
2022-08-14T19:31:56.310Z,7.17
2022-08-14T19:34:52.408Z,7.53
2022-08-14T19:37:47.948Z,7.93
2022-08-14T19:40:34.052Z,8.10
2022-08-14T19:43:06.598Z,8.03
2022-08-14T19:45:39.064Z,7.20
2022-08-14T19:48:15.725Z,9.67
2022-08-14T19:50:47.088Z,9.33
2022-08-14T19:53:18.276Z,8.00
2022-08-14T19:56:02.123Z,8.50
2022-08-14T19:58:54.449Z,8.50
2022-08-14T20:01:36.471Z,8.03
2022-08-14T20:04:45.377Z,8.20
2022-08-14T20:07:04.278Z,8.40
2022-08-14T20:11:06.479Z,8.83
2022-08-14T20:12:57.227Z,8.97
2022-08-14T20:18:46.032Z,8.00
2022-08-14T20:21:06.329Z,9.67
2022-08-14T20:23:38.496Z,8.40
2022-08-14T20:26:31.232Z,9.03
2022-08-14T20:29:05.355Z,7.83
2022-08-14T20:31:40.712Z,7.97
2022-08-14T20:34:24.466Z,8.30
2022-08-14T20:37:09.976Z,7.50
2022-08-14T20:39:43.725Z,8.07
2022-08-14T20:42:33.832Z,7.17
2022-08-14T20:45:21.477Z,9.33
2022-08-14T20:47:58.658Z,9.87
2022-08-14T20:50:32.021Z,8.90
2022-08-14T20:53:05.992Z,10.30
2022-08-14T20:55:45.258Z,9.40
2022-08-14T20:58:41.911Z,8.40
2022-08-14T21:01:34.933Z,9.10
2022-08-14T21:04:22.090Z,7.97
2022-08-14T21:07:26.204Z,8.90
2022-08-14T21:10:06.246Z,8.93
2022-08-14T21:13:26.005Z,8.63
2022-08-14T21:15:32.604Z,8.60
2022-08-14T21:18:02.943Z,9.23
2022-08-14T21:20:32.431Z,9.23
2022-08-14T21:23:04.293Z,9.10
2022-08-14T21:25:36.099Z,8.67
2022-08-14T21:28:29.429Z,9.20
2022-08-14T21:31:00.254Z,9.30
2022-08-14T21:33:30.774Z,9.50
2022-08-14T21:36:07.660Z,9.53
2022-08-14T21:38:38.679Z,8.50
2022-08-14T21:41:43.381Z,10.67
2022-08-14T21:44:17.798Z,8.80
2022-08-14T21:46:51.082Z,8.57
2022-08-14T21:49:37.561Z,9.80
2022-08-14T21:52:49.546Z,10.10
2022-08-14T21:55:08.480Z,9.00
2022-08-14T21:57:56.116Z,9.60
2022-08-14T22:00:36.624Z,9.43
2022-08-14T22:03:17.468Z,9.47
2022-08-14T22:05:51.260Z,8.77
2022-08-14T22:08:26.562Z,9.17
2022-08-14T22:10:56.919Z,9.30
2022-08-14T22:13:32.249Z,8.97
2022-08-14T22:16:02.520Z,8.70
2022-08-14T22:18:33.575Z,7.77
2022-08-14T22:21:08.031Z,8.17
2022-08-14T22:23:37.335Z,8.77
2022-08-14T22:26:07.473Z,8.30
2022-08-14T22:28:38.222Z,7.80
2022-08-14T22:31:18.242Z,8.23
2022-08-14T22:33:57.803Z,8.13
2022-08-14T22:36:54.438Z,8.37
2022-08-14T22:40:17.748Z,7.90
2022-08-14T22:42:21.363Z,7.20
2022-08-14T22:44:57.785Z,8.83
2022-08-14T22:47:40.475Z,8.80
2022-08-14T22:50:32.023Z,9.27
2022-08-14T22:53:05.532Z,8.60
2022-08-14T22:55:38.577Z,8.73
2022-08-14T22:58:08.190Z,8.53
2022-08-14T23:00:38.027Z,7.90
2022-08-14T23:03:17.041Z,8.07
2022-08-14T23:05:52.596Z,7.80
2022-08-14T23:08:58.977Z,8.33
2022-08-14T23:11:14.085Z,8.03
2022-08-14T23:13:46.188Z,8.43
2022-08-14T23:16:20.191Z,8.97
2022-08-14T23:18:53.804Z,8.40
2022-08-14T23:21:25.200Z,8.47
2022-08-14T23:24:00.042Z,7.83
2022-08-14T23:26:49.480Z,8.10
2022-08-14T23:29:22.811Z,8.83
2022-08-14T23:31:52.266Z,8.47
2022-08-14T23:34:23.584Z,7.37
2022-08-14T23:36:55.877Z,7.37
2022-08-14T23:39:29.539Z,6.83
2022-08-14T23:42:03.771Z,8.17
2022-08-14T23:44:38.094Z,7.17
2022-08-14T23:47:25.561Z,8.00
2022-08-14T23:50:00.430Z,7.43
2022-08-14T23:53:04.116Z,7.97
2022-08-14T23:55:29.379Z,8.00
2022-08-14T23:57:59.339Z,10.33
